createdAt,value
2023-01-17T00:00:01.192Z,3.6
2023-01-17T00:02:00.958Z,3.6
2023-01-17T00:05:00.951Z,3.5
2023-01-17T00:06:00.974Z,3.4
2023-01-17T00:07:00.967Z,3.5
2023-01-17T00:09:00.942Z,3.5
2023-01-17T00:10:00.957Z,3.4
2023-01-17T00:13:00.970Z,3.5
2023-01-17T00:15:01.143Z,3.6
2023-01-17T00:17:00.972Z,3.4
2023-01-17T00:18:01.012Z,3.5
2023-01-17T00:21:00.952Z,3.4
2023-01-17T00:22:00.975Z,3.3
2023-01-17T00:23:00.983Z,3.4
2023-01-17T00:26:00.938Z,3.3
2023-01-17T00:27:00.981Z,3.4
2023-01-17T00:38:00.980Z,3.2
2023-01-17T00:46:00.997Z,3.2
2023-01-17T00:49:00.911Z,3.4
2023-01-17T00:50:00.924Z,3.3
2023-01-17T00:51:00.976Z,3.4
2023-01-17T00:53:00.932Z,3.4
2023-01-17T00:54:00.946Z,3.3
2023-01-17T00:56:00.939Z,3.4
2023-01-17T00:57:00.997Z,3.5
2023-01-17T00:59:00.954Z,3.3
2023-01-17T01:00:01.180Z,3.4
2023-01-17T01:04:00.980Z,3.5
2023-01-17T01:05:00.963Z,3.3
2023-01-17T01:06:00.954Z,3.4
2023-01-17T01:07:01.052Z,3.3
2023-01-17T01:10:00.955Z,3.3
2023-01-17T01:13:00.978Z,3.5
2023-01-17T01:15:01.048Z,3.4
2023-01-17T01:17:01.036Z,3.4
2023-01-17T01:20:01.001Z,3.5
2023-01-17T01:22:00.953Z,3.4
2023-01-17T01:24:00.959Z,3.4
2023-01-17T01:28:00.932Z,3.4
2023-01-17T01:30:01.157Z,3.5
2023-01-17T01:32:00.937Z,3.6
2023-01-17T01:34:00.928Z,3.6
2023-01-17T01:35:00.961Z,3.4
2023-01-17T01:37:00.941Z,3.5
2023-01-17T01:39:00.965Z,3.7
2023-01-17T01:41:00.942Z,3.5
2023-01-17T01:43:00.939Z,3.4
2023-01-17T01:44:00.935Z,3.5
2023-01-17T01:46:01.101Z,3.4
2023-01-17T01:47:00.998Z,3.3
2023-01-17T01:51:00.927Z,3.5
2023-01-17T01:53:00.911Z,3.4
2023-01-17T01:54:00.952Z,3.3
2023-01-17T01:57:00.933Z,3.3
2023-01-17T02:00:00.979Z,3.4
2023-01-17T02:05:03.062Z,3.5
2023-01-17T02:08:00.929Z,3.5
2023-01-17T02:10:00.932Z,3.4
2023-01-17T02:13:00.923Z,3.4
2023-01-17T02:15:00.980Z,3.3
2023-01-17T02:17:00.961Z,3.3
2023-01-17T02:19:00.966Z,3.3
2023-01-17T02:21:00.962Z,3.3
2023-01-17T02:23:01.010Z,3.3
2023-01-17T02:25:00.964Z,3.2
2023-01-17T02:27:00.997Z,3.1
2023-01-17T02:29:00.914Z,3.1
2023-01-17T02:30:01.042Z,3.2
2023-01-17T02:32:00.916Z,3
2023-01-17T02:33:00.944Z,3.1
2023-01-17T02:39:00.938Z,3
2023-01-17T02:43:00.943Z,2.9
2023-01-17T02:44:00.919Z,3
2023-01-17T02:46:00.976Z,2.9
2023-01-17T02:47:00.961Z,3
2023-01-17T02:49:00.924Z,2.9
2023-01-17T02:50:00.917Z,2.8
2023-01-17T02:54:00.949Z,3.1
2023-01-17T02:55:00.949Z,2.9
2023-01-17T02:57:00.956Z,3
2023-01-17T02:58:01.003Z,2.9
2023-01-17T03:02:01.168Z,2.8
2023-01-17T03:03:00.965Z,2.9
2023-01-17T03:07:01.025Z,2.8
2023-01-17T03:09:00.907Z,2.8
2023-01-17T03:11:00.965Z,3
2023-01-17T03:13:00.986Z,2.8
2023-01-17T03:15:00.981Z,2.7
2023-01-17T03:20:00.929Z,2.6
2023-01-17T03:22:00.960Z,2.8
2023-01-17T03:23:00.948Z,2.7
2023-01-17T03:24:00.980Z,2.8
2023-01-17T03:25:00.950Z,2.7
2023-01-17T03:26:00.956Z,2.6
2023-01-17T03:27:00.956Z,2.7
2023-01-17T03:30:01.041Z,2.6
2023-01-17T03:33:00.926Z,2.6
2023-01-17T03:34:00.919Z,2.7
2023-01-17T03:35:01.005Z,2.6
2023-01-17T03:37:00.942Z,2.5
2023-01-17T03:38:00.960Z,2.6
2023-01-17T03:40:01.205Z,2.5
2023-01-17T03:42:00.939Z,2.6
2023-01-17T03:45:01.134Z,2.5
2023-01-17T03:47:00.934Z,2.6
2023-01-17T03:48:00.953Z,2.5
2023-01-17T03:53:00.937Z,2.7
2023-01-17T03:54:00.921Z,2.5
2023-01-17T03:55:00.939Z,2.7
2023-01-17T03:56:00.968Z,2.6
2023-01-17T04:06:00.938Z,2.7
2023-01-17T04:07:00.954Z,2.6
2023-01-17T04:11:00.934Z,2.7
2023-01-17T04:12:00.935Z,2.6
2023-01-17T04:22:01.013Z,2.7
2023-01-17T04:24:00.965Z,2.7
2023-01-17T04:25:00.957Z,2.5
2023-01-17T04:27:00.998Z,2.6
2023-01-17T04:28:01.024Z,2.4
2023-01-17T04:31:01.015Z,2.5
2023-01-17T04:36:00.953Z,2.4
2023-01-17T04:38:00.993Z,2.4
2023-01-17T04:40:00.951Z,2.3
2023-01-17T04:42:00.973Z,2.4
2023-01-17T04:45:01.002Z,2.4
2023-01-17T04:46:01.055Z,2.3
2023-01-17T04:48:01.024Z,2.2
2023-01-17T04:51:00.967Z,2.4
2023-01-17T04:52:00.995Z,2.3
2023-01-17T04:54:00.973Z,2.2
2023-01-17T04:55:00.999Z,2.4
2023-01-17T04:59:00.933Z,2.2
2023-01-17T05:00:01.195Z,2.3
2023-01-17T05:02:01.057Z,2.2
2023-01-17T05:04:00.938Z,2.2
2023-01-17T05:05:01.025Z,2.3
2023-01-17T05:07:01.037Z,2.2
2023-01-17T05:10:00.946Z,2.2
2023-01-17T05:15:01.057Z,2.4
2023-01-17T05:16:01.072Z,2.2
2023-01-17T05:18:00.990Z,2.2
2023-01-17T05:20:00.958Z,2.3
2023-01-17T05:22:00.944Z,2.3
2023-01-17T05:25:00.972Z,2.2
2023-01-17T05:27:00.919Z,2.4
2023-01-17T05:28:00.925Z,2.2
2023-01-17T05:30:01.151Z,2.3
2023-01-17T05:33:00.920Z,2.2
2023-01-17T05:43:00.964Z,2.3
2023-01-17T05:44:00.969Z,2.1
2023-01-17T05:46:00.989Z,2.2
2023-01-17T05:47:00.959Z,2.1
2023-01-17T05:50:00.987Z,2.2
2023-01-17T05:51:00.997Z,2.1
2023-01-17T05:53:00.947Z,2.2
2023-01-17T05:54:00.965Z,2.3
2023-01-17T05:55:00.977Z,2.1
2023-01-17T06:01:00.963Z,2.3
2023-01-17T06:02:00.925Z,2.1
2023-01-17T06:06:00.991Z,2.2
2023-01-17T06:08:00.977Z,2.2
2023-01-17T06:10:00.939Z,2.1
2023-01-17T06:11:00.925Z,2
2023-01-17T06:12:00.979Z,2.1
2023-01-17T06:15:00.993Z,2
2023-01-17T06:17:00.928Z,1.9
2023-01-17T06:18:00.947Z,2
2023-01-17T06:20:00.973Z,1.8
2023-01-17T06:24:02.693Z,1.9
2023-01-17T06:26:00.960Z,1.8
2023-01-17T06:27:00.985Z,1.7
2023-01-17T06:29:00.960Z,1.7
2023-01-17T06:30:01.122Z,1.8
2023-01-17T06:32:01.782Z,1.8
2023-01-17T06:33:00.988Z,1.7
2023-01-17T06:34:01.011Z,1.6
2023-01-17T06:36:00.942Z,1.6
2023-01-17T06:37:00.972Z,1.8
2023-01-17T06:39:00.963Z,1.7
2023-01-17T06:40:00.978Z,1.8
2023-01-17T06:42:00.954Z,1.7
2023-01-17T06:43:00.938Z,1.8
2023-01-17T06:44:01.003Z,1.7
2023-01-17T06:46:00.925Z,1.9
2023-01-17T06:47:00.993Z,1.7
2023-01-17T06:52:00.979Z,1.8
2023-01-17T06:55:00.964Z,1.9
2023-01-17T06:56:00.980Z,1.8
2023-01-17T06:59:00.908Z,1.7
2023-01-17T07:00:01.015Z,1.8
2023-01-17T07:02:00.944Z,1.9
2023-01-17T07:04:00.987Z,1.9
2023-01-17T07:10:00.919Z,1.8
2023-01-17T07:17:01.081Z,1.8
2023-01-17T07:19:00.986Z,2
2023-01-17T07:22:00.947Z,1.8
2023-01-17T07:24:00.941Z,2.1
2023-01-17T07:25:00.940Z,1.9
2023-01-17T07:27:00.946Z,2
2023-01-17T07:28:00.975Z,1.9
2023-01-17T07:31:00.957Z,1.9
2023-01-17T07:32:00.939Z,2
2023-01-17T07:35:00.922Z,2.1
2023-01-17T07:38:00.932Z,2.1
2023-01-17T07:39:00.936Z,2
2023-01-17T07:41:00.905Z,2.1
2023-01-17T07:42:00.933Z,2
2023-01-17T07:44:00.960Z,2
2023-01-17T07:46:02.234Z,1.9
2023-01-17T07:47:01.014Z,2
2023-01-17T07:51:00.909Z,2.1
2023-01-17T07:52:00.925Z,2.2
2023-01-17T07:57:01.023Z,2
2023-01-17T07:59:00.913Z,2.2
2023-01-17T08:00:00.981Z,2.1
2023-01-17T08:02:01.114Z,2
2023-01-17T08:04:00.943Z,2
2023-01-17T08:07:00.996Z,2
2023-01-17T08:09:00.952Z,2.1
2023-01-17T08:11:00.931Z,1.9
2023-01-17T08:13:00.943Z,2
2023-01-17T08:14:00.953Z,2.1
2023-01-17T08:15:00.972Z,2
2023-01-17T08:17:00.947Z,2.1
2023-01-17T08:18:01.012Z,2
2023-01-17T08:19:00.968Z,2.1
2023-01-17T08:21:00.975Z,2
2023-01-17T08:24:00.975Z,2
2023-01-17T08:26:00.932Z,2
2023-01-17T08:28:00.934Z,1.9
2023-01-17T08:29:00.973Z,2
2023-01-17T08:31:00.950Z,2.1
2023-01-17T08:32:00.927Z,2
2023-01-17T08:33:00.982Z,2.1
2023-01-17T08:35:00.976Z,1.9
2023-01-17T08:38:00.954Z,2.2
2023-01-17T08:40:00.948Z,1.9
2023-01-17T08:43:00.926Z,2
2023-01-17T08:45:01.131Z,1.7
2023-01-17T08:48:00.987Z,1.8
2023-01-17T08:52:00.936Z,1.9
2023-01-17T08:55:00.951Z,1.7
2023-01-17T08:57:00.996Z,1.8
2023-01-17T09:00:01.088Z,1.8
2023-01-17T09:02:01.026Z,2
2023-01-17T09:05:00.929Z,2
2023-01-17T09:06:00.950Z,1.9
2023-01-17T09:07:00.941Z,2.1
2023-01-17T09:11:01.028Z,1.9
2023-01-17T09:12:01.049Z,2
2023-01-17T09:15:00.971Z,2.1
2023-01-17T09:18:00.945Z,1.9
2023-01-17T09:19:01.058Z,2
2023-01-17T09:21:00.954Z,1.8
2023-01-17T09:23:00.930Z,1.8
2023-01-17T09:25:00.944Z,1.7
2023-01-17T09:26:00.964Z,1.9
2023-01-17T09:28:00.988Z,1.7
2023-01-17T09:32:01.006Z,1.7
2023-01-17T09:34:00.932Z,1.9
2023-01-17T09:35:01.065Z,1.8
2023-01-17T09:36:00.934Z,1.9
2023-01-17T09:38:00.960Z,1.8
2023-01-17T09:40:00.959Z,1.9
2023-01-17T09:43:00.975Z,1.9
2023-01-17T09:45:00.983Z,2.2
2023-01-17T09:48:00.949Z,2.2
2023-01-17T09:50:00.934Z,2.2
2023-01-17T09:58:00.942Z,2.3
2023-01-17T09:59:00.965Z,2.2
2023-01-17T10:00:03.422Z,2.1
2023-01-17T10:07:00.970Z,2.2
2023-01-17T10:09:00.952Z,2.4
2023-01-17T10:10:00.977Z,2.3
2023-01-17T10:12:01.016Z,2.4
2023-01-17T10:13:00.980Z,2.6
2023-01-17T10:16:00.998Z,2.5
2023-01-17T10:17:00.972Z,2.7
2023-01-17T10:20:00.905Z,2.6
2023-01-17T10:22:00.918Z,2.5
2023-01-17T10:23:00.910Z,2.6
2023-01-17T10:25:00.947Z,2.7
2023-01-17T10:26:00.925Z,2.5
2023-01-17T10:27:00.937Z,2.6
2023-01-17T10:32:00.977Z,2.4
2023-01-17T10:35:00.970Z,2.4
2023-01-17T10:38:00.936Z,2.3
2023-01-17T10:41:00.905Z,2.3
2023-01-17T10:42:00.975Z,2.4
2023-01-17T10:44:00.908Z,2.4
2023-01-17T10:45:00.967Z,2.3
2023-01-17T10:47:01.047Z,2.5
2023-01-17T10:50:00.930Z,2.6
2023-01-17T10:51:00.967Z,2.7
2023-01-17T10:52:00.969Z,2.9
2023-01-17T10:53:00.979Z,3
2023-01-17T10:55:01.031Z,3.1
2023-01-17T10:58:00.920Z,3.5
2023-01-17T10:59:00.960Z,3.6
2023-01-17T11:00:01.295Z,3.7
2023-01-17T11:02:01.175Z,3.7
2023-01-17T11:05:00.948Z,4.1
2023-01-17T11:06:00.981Z,4
2023-01-17T11:08:00.944Z,4.2
2023-01-17T11:09:00.946Z,4.1
2023-01-17T11:10:00.959Z,4.2
2023-01-17T11:13:00.994Z,4.4
2023-01-17T11:15:01.028Z,4.5
2023-01-17T11:17:01.004Z,4.8
2023-01-17T11:20:00.914Z,4.9
2023-01-17T11:21:00.933Z,4.8
2023-01-17T11:22:00.920Z,4.9
2023-01-17T11:23:00.975Z,5
2023-01-17T11:24:00.989Z,4.9
2023-01-17T11:25:00.953Z,5.1
2023-01-17T11:27:00.938Z,5
2023-01-17T11:28:00.975Z,5.2
2023-01-17T11:30:01.061Z,5.1
2023-01-17T11:32:00.978Z,5
2023-01-17T11:33:00.932Z,5.1
2023-01-17T11:34:00.965Z,5
2023-01-17T11:36:00.922Z,5
2023-01-17T11:37:00.966Z,4.8
2023-01-17T11:39:00.955Z,4.8
2023-01-17T11:40:00.986Z,4.9
2023-01-17T11:42:00.926Z,4.8
2023-01-17T11:43:00.930Z,4.6
2023-01-17T11:45:01.035Z,4.8
2023-01-17T11:47:00.945Z,4.7
2023-01-17T11:48:00.934Z,4.3
2023-01-17T11:50:01.016Z,4.4
2023-01-17T11:54:00.992Z,4.3
2023-01-17T11:56:00.936Z,4.3
2023-01-17T12:00:01.013Z,4.1
2023-01-17T12:02:00.966Z,4.1
2023-01-17T12:04:01.026Z,4
2023-01-17T12:06:01.000Z,4
2023-01-17T12:07:01.009Z,3.9
2023-01-17T12:12:00.969Z,4
2023-01-17T12:14:00.926Z,4.1
2023-01-17T12:15:00.996Z,4
2023-01-17T12:17:00.983Z,4.1
2023-01-17T12:19:00.979Z,4.1
2023-01-17T12:23:00.995Z,3.9
2023-01-17T12:24:00.979Z,4
2023-01-17T12:26:00.975Z,3.9
2023-01-17T12:28:00.977Z,4
2023-01-17T12:30:01.054Z,3.9
2023-01-17T12:33:00.958Z,4
2023-01-17T12:36:00.979Z,3.7
2023-01-17T12:39:00.955Z,3.9
2023-01-17T12:44:00.956Z,4
2023-01-17T12:49:00.910Z,3.9
2023-01-17T12:50:00.937Z,4.1
2023-01-17T12:51:01.031Z,4
2023-01-17T12:53:01.016Z,3.9
2023-01-17T12:56:00.935Z,4.1
2023-01-17T12:57:00.979Z,4.2
2023-01-17T12:59:00.921Z,4.2
2023-01-17T13:01:01.013Z,4.3
2023-01-17T13:02:01.064Z,4.4
2023-01-17T13:03:00.967Z,4.3
2023-01-17T13:04:00.988Z,4.4
2023-01-17T13:06:00.977Z,4.3
2023-01-17T13:08:00.986Z,4.4
2023-01-17T13:10:00.958Z,4.4
2023-01-17T13:11:00.958Z,4.3
2023-01-17T13:13:00.993Z,4.4
2023-01-17T13:20:01.001Z,4.3
2023-01-17T13:22:00.933Z,4.5
2023-01-17T13:23:00.972Z,4.3
2023-01-17T13:25:00.947Z,4.4
2023-01-17T13:26:00.977Z,4.2
2023-01-17T13:28:00.991Z,4.1
2023-01-17T13:30:01.139Z,4.1
2023-01-17T13:33:00.952Z,4.2
2023-01-17T13:34:00.999Z,4
2023-01-17T13:36:00.923Z,4
2023-01-17T13:38:00.990Z,3.9
2023-01-17T13:40:00.922Z,3.7
2023-01-17T13:41:00.929Z,3.8
2023-01-17T13:43:00.957Z,3.7
2023-01-17T13:45:01.088Z,3.5
2023-01-17T13:47:01.016Z,3.5
2023-01-17T13:49:00.908Z,3.5
2023-01-17T13:50:00.972Z,3.4
2023-01-17T13:52:00.954Z,3.4
2023-01-17T13:53:00.976Z,3.3
2023-01-17T13:56:00.924Z,3.2
2023-01-17T13:58:00.930Z,3
2023-01-17T14:00:01.107Z,2.9
2023-01-17T14:06:01.023Z,2.8
2023-01-17T14:08:00.926Z,2.8
2023-01-17T14:10:00.953Z,2.9
2023-01-17T14:11:00.957Z,2.8
2023-01-17T14:12:00.960Z,2.7
2023-01-17T14:15:01.018Z,2.7
2023-01-17T14:22:03.144Z,2.7
2023-01-17T14:24:00.941Z,2.7
2023-01-17T14:26:00.910Z,2.8
2023-01-17T14:29:00.963Z,2.7
2023-01-17T14:36:00.938Z,2.6
2023-01-17T14:38:00.952Z,2.7
2023-01-17T14:41:00.949Z,2.5
2023-01-17T14:43:00.901Z,2.6
2023-01-17T14:44:00.921Z,2.4
2023-01-17T14:45:00.955Z,2.5
2023-01-17T14:48:00.945Z,2.4
2023-01-17T14:51:00.918Z,2.5
2023-01-17T14:52:00.920Z,2.4
2023-01-17T14:54:00.970Z,2.5
2023-01-17T14:56:00.994Z,2.3
2023-01-17T14:57:01.014Z,2.4
2023-01-17T14:59:00.949Z,2.2
2023-01-17T15:00:00.985Z,2.4
2023-01-17T15:02:07.432Z,2.2
2023-01-17T15:05:00.988Z,2.1
2023-01-17T15:07:01.091Z,2
2023-01-17T15:09:00.941Z,2
2023-01-17T15:10:01.003Z,2.1
2023-01-17T15:15:01.073Z,1.7
2023-01-17T15:16:01.051Z,1.8
2023-01-17T15:18:00.988Z,1.7
2023-01-17T15:21:00.938Z,1.6
2023-01-17T15:24:01.008Z,1.5
2023-01-17T15:26:01.012Z,1.4
2023-01-17T15:27:00.992Z,1.5
2023-01-17T15:28:01.066Z,1.4
2023-01-17T15:31:01.078Z,1.2
2023-01-17T15:34:00.977Z,1
2023-01-17T15:36:01.089Z,1
2023-01-17T15:39:01.003Z,0.9
2023-01-17T15:40:01.062Z,1
2023-01-17T15:42:00.997Z,0.9
2023-01-17T15:43:01.087Z,1
2023-01-17T15:44:00.980Z,0.8
2023-01-17T15:45:01.084Z,0.9
2023-01-17T15:47:01.049Z,0.7
2023-01-17T15:49:01.097Z,0.8
2023-01-17T15:50:01.082Z,0.6
2023-01-17T15:53:01.098Z,0.7
2023-01-17T15:56:01.248Z,0.7
2023-01-17T15:58:00.989Z,0.7
2023-01-17T16:00:01.157Z,0.6
2023-01-17T16:05:01.008Z,0.7
2023-01-17T16:07:01.073Z,0.4
2023-01-17T16:10:00.983Z,0.7
2023-01-17T16:11:00.995Z,0.5
2023-01-17T16:14:00.989Z,0.4
2023-01-17T16:15:11.075Z,0.5
2023-01-17T16:17:01.061Z,0.4
2023-01-17T16:19:01.049Z,0.3
2023-01-17T16:22:00.989Z,0.3
2023-01-17T16:24:01.029Z,0.4
2023-01-17T16:26:00.995Z,0.2
2023-01-17T16:28:00.969Z,0.2
2023-01-17T16:30:01.379Z,0
2023-01-17T16:33:00.954Z,0
2023-01-17T16:36:01.049Z,-0.1
2023-01-17T16:37:01.056Z,0
2023-01-17T16:38:01.045Z,-0.1
2023-01-17T16:42:00.957Z,-0.2
2023-01-17T16:43:00.951Z,-0.3
2023-01-17T16:44:00.996Z,-0.2
2023-01-17T16:45:01.293Z,-0.4
2023-01-17T16:47:01.026Z,-0.5
2023-01-17T16:52:00.994Z,-0.7
2023-01-17T16:54:00.990Z,-0.7
2023-01-17T16:57:01.035Z,-0.8
2023-01-17T16:59:00.979Z,-0.7
2023-01-17T17:00:01.233Z,-0.8
2023-01-17T17:04:01.209Z,-0.9
2023-01-17T17:07:01.071Z,-0.9
2023-01-17T17:14:01.001Z,-1.1
2023-01-17T17:15:01.162Z,-1
2023-01-17T17:17:00.989Z,-1.1
2023-01-17T17:19:00.981Z,-1.3
2023-01-17T17:20:01.053Z,-1.3
2023-01-17T17:22:01.039Z,-1.1
2023-01-17T17:23:01.090Z,-1.2
2023-01-17T17:29:01.017Z,-1.4
2023-01-17T17:32:01.084Z,-1.5
2023-01-17T17:34:01.223Z,-1.4
2023-01-17T17:40:01.268Z,-1.5
2023-01-17T17:41:01.201Z,-1.4
2023-01-17T17:42:01.236Z,-1.5
2023-01-17T17:48:01.196Z,-1.6
2023-01-17T17:50:00.972Z,-1.7
2023-01-17T17:51:01.021Z,-1.6
2023-01-17T17:53:00.962Z,-1.5
2023-01-17T17:57:01.053Z,-1.6
2023-01-17T18:02:01.039Z,-1.8
2023-01-17T18:03:00.983Z,-1.5
2023-01-17T18:05:01.085Z,-1.5
2023-01-17T18:06:01.009Z,-1.7
2023-01-17T18:07:01.082Z,-1.6
2023-01-17T18:09:00.999Z,-1.6
2023-01-17T18:12:01.009Z,-1.7
2023-01-17T18:19:00.965Z,-1.8
2023-01-17T18:20:00.960Z,-1.7
2023-01-17T18:22:00.983Z,-1.6
2023-01-17T18:25:00.965Z,-1.6
2023-01-17T18:26:00.999Z,-1.7
2023-01-17T18:30:01.175Z,-1.9
2023-01-17T18:34:00.967Z,-1.9
2023-01-17T18:35:01.009Z,-1.7
2023-01-17T18:36:02.184Z,-1.8
2023-01-17T18:38:00.992Z,-1.9
2023-01-17T18:41:00.994Z,-1.7
2023-01-17T18:42:00.959Z,-1.9
2023-01-17T18:44:01.048Z,-1.7
2023-01-17T18:45:01.032Z,-1.9
2023-01-17T18:47:00.973Z,-1.8
2023-01-17T18:49:00.988Z,-1.9
2023-01-17T18:50:00.965Z,-2
2023-01-17T18:51:01.012Z,-1.9
2023-01-17T18:54:00.942Z,-2
2023-01-17T18:55:00.962Z,-1.9
2023-01-17T18:57:00.999Z,-2
2023-01-17T18:59:00.969Z,-1.8
2023-01-17T19:00:00.975Z,-2
2023-01-17T19:03:00.975Z,-2.2
2023-01-17T19:04:01.048Z,-2.1
2023-01-17T19:05:01.004Z,-2
2023-01-17T19:08:00.987Z,-2
2023-01-17T19:12:00.977Z,-2.1
2023-01-17T19:13:01.005Z,-2.3
2023-01-17T19:14:01.094Z,-2.2
2023-01-17T19:16:01.056Z,-2.3
2023-01-17T19:19:00.991Z,-2.2
2023-01-17T19:20:00.976Z,-2.3
2023-01-17T19:22:00.962Z,-2.4
2023-01-17T19:25:00.991Z,-2.5
2023-01-17T19:28:00.949Z,-2.5
2023-01-17T19:29:00.959Z,-2.4
2023-01-17T19:31:00.957Z,-2.6
2023-01-17T19:32:00.934Z,-2.5
2023-01-17T19:33:00.915Z,-2.4
2023-01-17T19:35:01.073Z,-2.5
2023-01-17T19:38:00.967Z,-2.5
2023-01-17T19:39:05.502Z,-2.6
2023-01-17T19:46:01.114Z,-2.7
2023-01-17T19:50:01.006Z,-2.8
2023-01-17T19:52:00.977Z,-2.8
2023-01-17T19:54:00.946Z,-2.9
2023-01-17T19:56:01.024Z,-2.8
2023-01-17T19:59:01.735Z,-2.9
2023-01-17T20:01:01.180Z,-2.8
2023-01-17T20:03:01.057Z,-2.8
2023-01-17T20:04:01.008Z,-2.7
2023-01-17T20:05:00.966Z,-2.8
2023-01-17T20:07:00.966Z,-2.9
2023-01-17T20:08:00.998Z,-2.8
2023-01-17T20:11:02.187Z,-2.8
2023-01-17T20:13:01.016Z,-2.8
2023-01-17T20:24:00.996Z,-2.6
2023-01-17T20:25:00.991Z,-2.7
2023-01-17T20:27:00.966Z,-2.8
2023-01-17T20:35:01.024Z,-2.7
2023-01-17T20:40:00.996Z,-2.8
2023-01-17T20:41:01.000Z,-2.6
2023-01-17T20:43:00.987Z,-2.5
2023-01-17T20:44:01.010Z,-2.6
2023-01-17T20:45:01.155Z,-2.5
2023-01-17T20:47:00.960Z,-2.4
2023-01-17T20:50:00.962Z,-2.5
2023-01-17T20:54:00.971Z,-2.3
2023-01-17T20:55:01.035Z,-2.4
2023-01-17T20:57:00.967Z,-2.4
2023-01-17T20:58:01.001Z,-2.3
2023-01-17T21:04:01.005Z,-2.1
2023-01-17T21:07:00.967Z,-2
2023-01-17T21:08:00.999Z,-2.1
2023-01-17T21:10:01.041Z,-2
2023-01-17T21:12:01.212Z,-1.9
2023-01-17T21:18:00.982Z,-1.9
2023-01-17T21:20:01.066Z,-2.1
2023-01-17T21:24:00.988Z,-1.8
2023-01-17T21:25:01.029Z,-1.9
2023-01-17T21:28:00.991Z,-1.8
2023-01-17T21:29:01.005Z,-2
2023-01-17T21:31:01.086Z,-1.9
2023-01-17T21:33:01.132Z,-1.8
2023-01-17T21:35:01.047Z,-1.8
2023-01-17T21:36:01.070Z,-1.9
2023-01-17T21:40:01.569Z,-2
2023-01-17T21:42:01.066Z,-1.9
2023-01-17T21:45:01.104Z,-1.9
2023-01-17T21:47:01.147Z,-2
2023-01-17T21:48:01.093Z,-1.9
2023-01-17T21:51:01.099Z,-2
2023-01-17T21:54:01.028Z,-2.1
2023-01-17T21:55:01.042Z,-1.9
2023-01-17T21:59:01.059Z,-2
2023-01-17T22:01:01.033Z,-2.1
2023-01-17T22:02:01.052Z,-2
2023-01-17T22:08:00.987Z,-2.1
2023-01-17T22:09:01.095Z,-2.2
2023-01-17T22:10:01.195Z,-2.1
2023-01-17T22:14:00.999Z,-2
2023-01-17T22:15:01.025Z,-2.1
2023-01-17T22:17:01.013Z,-2.1
2023-01-17T22:20:00.981Z,-2.2
2023-01-17T22:21:00.971Z,-2.1
2023-01-17T22:23:01.024Z,-2.2
2023-01-17T22:27:01.312Z,-2
2023-01-17T22:29:00.946Z,-2.1
2023-01-17T22:30:01.053Z,-2
2023-01-17T22:32:00.940Z,-2
2023-01-17T22:33:00.962Z,-2.1
2023-01-17T22:35:00.991Z,-2.1
2023-01-17T22:36:01.032Z,-2.2
2023-01-17T22:39:00.939Z,-2.1
2023-01-17T22:40:01.025Z,-2.2
2023-01-17T22:48:00.955Z,-2.3
2023-01-17T22:49:00.962Z,-2.2
2023-01-17T22:50:00.986Z,-2.3
2023-01-17T22:53:01.049Z,-2.1
2023-01-17T22:55:00.986Z,-2.2
2023-01-17T22:58:00.976Z,-2.3
2023-01-17T23:00:01.056Z,-2.1
2023-01-17T23:02:00.946Z,-2.2
2023-01-17T23:05:00.993Z,-2.1
2023-01-17T23:07:00.949Z,-2.2
2023-01-17T23:09:00.964Z,-2.3
2023-01-17T23:10:01.001Z,-2.2
2023-01-17T23:14:01.007Z,-2.1
2023-01-17T23:15:01.034Z,-2.2
2023-01-17T23:18:00.990Z,-2.1
2023-01-17T23:20:01.023Z,-2.3
2023-01-17T23:22:01.043Z,-2.2
2023-01-17T23:25:01.075Z,-2.1
2023-01-17T23:31:01.010Z,-2.2
2023-01-17T23:35:01.172Z,-2
2023-01-17T23:36:01.121Z,-2.1
2023-01-17T23:37:01.081Z,-2.2
2023-01-17T23:39:00.984Z,-2.1
2023-01-17T23:40:01.012Z,-2.2
2023-01-17T23:41:01.028Z,-2.1
2023-01-17T23:43:00.996Z,-2
2023-01-17T23:46:00.967Z,-2.1
2023-01-17T23:51:01.080Z,-2.2
2023-01-17T23:53:00.995Z,-2.1
2023-01-17T23:57:01.075Z,-2
